createdAt,value
2023-04-12T00:00:11.554Z,2.25
2023-04-12T00:01:13.270Z,2.33
2023-04-12T00:02:15.124Z,2.50
2023-04-12T00:03:20.811Z,2.33
2023-04-12T00:04:27.386Z,2.40
2023-04-12T00:05:30.883Z,2.10
2023-04-12T00:06:32.746Z,2.30
2023-04-12T00:07:34.360Z,2.30
2023-04-12T00:08:36.018Z,2.17
2023-04-12T00:09:37.965Z,1.98
2023-04-12T00:10:39.758Z,2.25
2023-04-12T00:11:41.778Z,2.20
2023-04-12T00:12:43.436Z,2.17
2023-04-12T00:13:45.042Z,2.13
2023-04-12T00:14:46.827Z,2.42
2023-04-12T00:15:48.920Z,2.20
2023-04-12T00:16:50.836Z,2.40
2023-04-12T00:17:52.505Z,3.58
2023-04-12T00:18:58.013Z,2.40
2023-04-12T00:19:59.596Z,2.15
2023-04-12T00:21:01.230Z,2.15
2023-04-12T00:22:02.845Z,2.20
2023-04-12T00:23:04.579Z,2.35
2023-04-12T00:24:06.584Z,2.38
2023-04-12T00:25:09.444Z,2.25
2023-04-12T00:26:11.029Z,2.05
2023-04-12T00:27:12.684Z,2.78
2023-04-12T00:28:15.971Z,2.53
2023-04-12T00:29:18.496Z,2.30
2023-04-12T00:30:21.057Z,2.00
2023-04-12T00:31:22.799Z,2.22
2023-04-12T00:32:24.506Z,2.40
2023-04-12T00:33:26.160Z,2.20
2023-04-12T00:34:28.681Z,2.58
2023-04-12T00:36:31.914Z,2.05
2023-04-12T00:37:33.918Z,2.17
2023-04-12T00:38:36.685Z,2.38
2023-04-12T00:40:43.558Z,1.75
2023-04-12T00:41:45.163Z,2.13
2023-04-12T00:42:46.983Z,2.38
2023-04-12T00:43:49.779Z,2.17
2023-04-12T00:44:51.501Z,2.10
2023-04-12T00:45:54.480Z,2.28
2023-04-12T00:46:56.379Z,2.13
2023-04-12T00:47:58.062Z,1.95
2023-04-12T00:48:59.882Z,1.85
2023-04-12T00:50:01.629Z,1.85
2023-04-12T00:51:04.803Z,1.95
2023-04-12T00:52:11.098Z,1.75
2023-04-12T00:53:14.228Z,2.45
2023-04-12T00:54:18.281Z,2.50
2023-04-12T00:55:20.177Z,2.08
2023-04-12T00:56:23.680Z,1.90
2023-04-12T00:57:25.464Z,2.03
2023-04-12T00:58:27.099Z,1.90
2023-04-12T00:59:28.976Z,1.98
2023-04-12T01:00:30.892Z,2.00
2023-04-12T01:01:32.505Z,2.40
2023-04-12T01:02:35.116Z,1.83
2023-04-12T01:04:53.310Z,1.83
2023-04-12T01:06:19.629Z,2.13
2023-04-12T01:10:10.157Z,1.67
2023-04-12T01:11:23.395Z,1.73
2023-04-12T01:12:34.050Z,1.90
2023-04-12T01:13:40.329Z,1.80
2023-04-12T01:15:12.145Z,1.63
2023-04-12T01:16:37.627Z,2.13
2023-04-12T01:18:02.813Z,2.15
2023-04-12T01:19:09.208Z,2.42
2023-04-12T01:20:19.929Z,2.28
2023-04-12T01:21:29.464Z,2.30
2023-04-12T01:22:49.187Z,2.30
2023-04-12T01:24:04.108Z,1.92
2023-04-12T01:25:24.255Z,2.20
2023-04-12T01:26:44.554Z,2.10
2023-04-12T01:27:48.747Z,2.25
2023-04-12T01:28:53.622Z,2.10
2023-04-12T01:29:56.541Z,2.63
2023-04-12T01:31:02.968Z,2.22
2023-04-12T01:32:05.259Z,2.17
2023-04-12T01:33:10.830Z,2.47
2023-04-12T01:34:13.674Z,2.03
2023-04-12T01:35:16.162Z,2.30
2023-04-12T01:36:21.659Z,2.30
2023-04-12T01:37:23.624Z,2.40
2023-04-12T01:38:25.426Z,2.20
2023-04-12T01:39:27.796Z,2.15
2023-04-12T01:40:31.701Z,2.40
2023-04-12T01:41:33.651Z,2.20
2023-04-12T01:42:35.505Z,2.25
2023-04-12T01:43:43.688Z,2.35
2023-04-12T01:44:45.258Z,2.50
2023-04-12T01:45:47.018Z,2.17
2023-04-12T01:46:48.825Z,2.38
2023-04-12T01:47:50.367Z,2.20
2023-04-12T01:48:52.904Z,2.15
2023-04-12T01:50:13.023Z,2.20
2023-04-12T01:51:23.943Z,2.20
2023-04-12T01:52:31.562Z,2.13
2023-04-12T01:53:45.759Z,2.33
2023-04-12T01:54:50.612Z,2.40
2023-04-12T01:55:57.618Z,2.63
2023-04-12T01:57:01.766Z,2.97
2023-04-12T01:58:03.325Z,2.50
2023-04-12T01:59:05.665Z,2.40
2023-04-12T02:00:08.290Z,2.35
2023-04-12T02:01:16.268Z,2.28
2023-04-12T02:02:18.538Z,2.35
2023-04-12T02:03:23.652Z,2.20
2023-04-12T02:04:27.652Z,1.90
2023-04-12T02:05:31.315Z,2.25
2023-04-12T02:06:33.382Z,2.25
2023-04-12T02:07:35.879Z,2.55
2023-04-12T02:08:37.740Z,2.15
2023-04-12T02:09:39.998Z,2.20
2023-04-12T02:10:41.588Z,2.42
2023-04-12T02:11:46.732Z,2.30
2023-04-12T02:12:48.337Z,1.95
2023-04-12T02:13:49.914Z,2.35
2023-04-12T02:14:52.139Z,2.20
2023-04-12T02:15:55.279Z,2.10
2023-04-12T02:16:58.404Z,2.30
2023-04-12T02:18:01.658Z,2.45
2023-04-12T02:19:03.919Z,2.30
2023-04-12T02:20:09.586Z,2.50
2023-04-12T02:21:11.126Z,2.30
2023-04-12T02:22:13.057Z,2.20
2023-04-12T02:23:14.651Z,1.90
2023-04-12T02:24:17.400Z,2.22
2023-04-12T02:25:19.647Z,2.10
2023-04-12T02:26:23.313Z,2.00
2023-04-12T02:27:25.332Z,2.10
2023-04-12T02:28:27.479Z,2.22
2023-04-12T02:29:29.638Z,2.10
2023-04-12T02:30:31.584Z,2.20
2023-04-12T02:31:34.538Z,1.75
2023-04-12T02:32:44.280Z,2.10
2023-04-12T02:33:49.870Z,2.08
2023-04-12T02:35:56.188Z,1.63
2023-04-12T02:36:58.431Z,1.90
2023-04-12T02:38:00.023Z,1.90
2023-04-12T02:39:04.355Z,1.80
2023-04-12T02:40:10.915Z,2.17
2023-04-12T02:41:18.116Z,2.00
2023-04-12T02:42:19.968Z,1.85
2023-04-12T02:43:23.599Z,2.20
2023-04-12T02:44:33.369Z,1.83
2023-04-12T02:45:48.914Z,1.80
2023-04-12T02:46:50.690Z,1.60
2023-04-12T02:47:52.553Z,2.00
2023-04-12T02:48:58.434Z,1.90
2023-04-12T02:50:08.526Z,1.70
2023-04-12T02:51:19.904Z,2.13
2023-04-12T02:52:24.412Z,2.20
2023-04-12T02:53:42.378Z,2.15
2023-04-12T02:55:07.644Z,1.67
2023-04-12T02:56:09.627Z,2.00
2023-04-12T02:57:11.737Z,2.13
2023-04-12T02:58:18.923Z,2.05
2023-04-12T02:59:25.197Z,2.40
2023-04-12T03:00:50.967Z,1.92
2023-04-12T03:01:58.167Z,2.10
2023-04-12T03:03:03.991Z,2.20
2023-04-12T03:04:07.755Z,1.90
2023-04-12T03:05:18.879Z,2.08
2023-04-12T03:06:21.103Z,2.13
2023-04-12T03:07:22.998Z,1.98
2023-04-12T03:08:26.210Z,2.10
2023-04-12T03:09:32.237Z,2.28
2023-04-12T03:10:34.099Z,2.10
2023-04-12T03:11:39.063Z,2.13
2023-04-12T03:12:41.135Z,1.95
2023-04-12T03:13:52.300Z,2.15
2023-04-12T03:14:54.397Z,2.40
2023-04-12T03:16:00.021Z,2.20
2023-04-12T03:17:09.667Z,2.30
2023-04-12T03:19:19.652Z,3.55
2023-04-12T03:20:28.305Z,5.18
2023-04-12T03:21:37.652Z,3.75
2023-04-12T03:22:39.290Z,2.72
2023-04-12T03:23:43.992Z,2.03
2023-04-12T03:24:51.768Z,2.47
2023-04-12T03:25:55.965Z,2.20
2023-04-12T03:27:10.190Z,2.85
2023-04-12T03:28:12.414Z,2.00
2023-04-12T03:29:23.118Z,2.50
2023-04-12T03:30:26.919Z,2.10
2023-04-12T03:31:31.477Z,3.33
2023-04-12T03:32:42.236Z,2.50
2023-04-12T03:33:45.546Z,3.00
2023-04-12T03:35:00.310Z,2.45
2023-04-12T03:36:02.145Z,3.72
2023-04-12T03:37:06.054Z,2.72
2023-04-12T03:38:16.240Z,1.95
2023-04-12T03:39:18.476Z,3.05
2023-04-12T03:40:24.346Z,4.03
2023-04-12T03:41:32.236Z,2.90
2023-04-12T03:42:37.096Z,3.38
2023-04-12T03:43:49.743Z,2.35
2023-04-12T03:44:54.008Z,2.00
2023-04-12T03:45:57.088Z,2.20
2023-04-12T03:47:00.625Z,2.20
2023-04-12T03:48:08.322Z,2.25
2023-04-12T03:49:16.755Z,1.90
2023-04-12T03:50:22.248Z,2.00
2023-04-12T03:51:30.625Z,1.90
2023-04-12T03:52:37.893Z,1.83
2023-04-12T03:53:41.730Z,1.80
2023-04-12T03:54:47.858Z,2.20
2023-04-12T03:55:57.264Z,2.10
2023-04-12T03:57:04.019Z,1.90
2023-04-12T03:58:16.384Z,1.85
2023-04-12T03:59:20.030Z,1.80
2023-04-12T04:00:24.115Z,1.90
2023-04-12T04:01:43.990Z,1.90
2023-04-12T04:02:47.437Z,1.60
2023-04-12T04:03:50.894Z,2.00
2023-04-12T04:05:02.481Z,1.50
2023-04-12T04:06:04.894Z,2.00
2023-04-12T04:08:18.694Z,1.40
2023-04-12T04:09:26.139Z,1.80
2023-04-12T04:10:28.391Z,1.83
2023-04-12T04:11:31.871Z,1.80
2023-04-12T04:12:40.483Z,1.52
2023-04-12T04:13:46.732Z,2.08
2023-04-12T04:14:53.478Z,1.92
2023-04-12T04:16:07.088Z,1.80
2023-04-12T04:17:08.826Z,1.65
2023-04-12T04:18:10.576Z,1.60
2023-04-12T04:19:12.828Z,1.52
2023-04-12T04:20:18.010Z,1.90
2023-04-12T04:21:23.930Z,1.55
2023-04-12T04:22:32.539Z,1.60
2023-04-12T04:23:39.526Z,1.70
2023-04-12T04:24:42.743Z,1.60
2023-04-12T04:25:45.136Z,1.80
2023-04-12T04:26:50.313Z,1.60
2023-04-12T04:27:59.622Z,1.80
2023-04-12T04:29:05.151Z,1.30
2023-04-12T04:30:16.531Z,1.70
2023-04-12T04:31:22.372Z,1.50
2023-04-12T04:32:25.621Z,1.30
2023-04-12T04:33:34.271Z,1.50
2023-04-12T04:34:37.554Z,1.45
2023-04-12T04:35:44.945Z,1.33
2023-04-12T04:37:05.458Z,1.73
2023-04-12T04:38:07.422Z,1.67
2023-04-12T04:39:10.605Z,1.63
2023-04-12T04:40:18.830Z,1.40
2023-04-12T04:41:22.804Z,1.58
2023-04-12T04:42:34.102Z,1.50
2023-04-12T04:43:40.024Z,2.15
2023-04-12T04:44:42.615Z,1.40
2023-04-12T04:45:48.716Z,1.40
2023-04-12T04:46:52.142Z,1.60
2023-04-12T04:47:54.756Z,1.38
2023-04-12T04:48:56.733Z,1.20
2023-04-12T04:49:59.977Z,1.40
2023-04-12T04:51:02.665Z,1.38
2023-04-12T04:52:04.621Z,1.70
2023-04-12T04:53:06.324Z,1.45
2023-04-12T04:54:08.609Z,1.20
2023-04-12T04:55:13.679Z,1.70
2023-04-12T04:56:19.573Z,1.30
2023-04-12T04:57:26.710Z,1.20
2023-04-12T04:58:31.208Z,1.33
2023-04-12T04:59:34.285Z,1.48
2023-04-12T05:00:48.896Z,1.20
2023-04-12T05:01:52.351Z,1.35
2023-04-12T05:02:54.464Z,1.20
2023-04-12T05:04:03.132Z,1.33
2023-04-12T05:05:05.049Z,1.40
2023-04-12T05:06:08.669Z,1.30
2023-04-12T05:07:14.261Z,1.00
2023-04-12T05:08:18.850Z,1.45
2023-04-12T05:09:23.042Z,1.60
2023-04-12T05:10:30.490Z,1.70
2023-04-12T05:11:37.285Z,1.63
2023-04-12T05:12:43.557Z,1.73
2023-04-12T05:13:48.954Z,1.90
2023-04-12T05:14:51.886Z,1.65
2023-04-12T05:15:54.025Z,2.10
2023-04-12T05:16:55.704Z,1.38
2023-04-12T05:17:57.872Z,1.45
2023-04-12T05:18:59.523Z,1.50
2023-04-12T05:20:01.413Z,1.83
2023-04-12T05:21:06.555Z,1.67
2023-04-12T05:22:08.302Z,1.40
2023-04-12T05:23:09.858Z,1.63
2023-04-12T05:24:11.977Z,2.00
2023-04-12T05:25:16.428Z,1.50
2023-04-12T05:26:26.262Z,1.50
2023-04-12T05:27:29.652Z,1.33
2023-04-12T05:28:31.453Z,1.20
2023-04-12T05:29:33.146Z,1.13
2023-04-12T05:30:35.162Z,1.35
2023-04-12T05:31:38.595Z,1.30
2023-04-12T05:32:44.322Z,1.30
2023-04-12T05:33:49.366Z,1.60
2023-04-12T05:34:51.052Z,1.45
2023-04-12T05:35:53.089Z,1.40
2023-04-12T05:36:54.726Z,1.45
2023-04-12T05:37:56.994Z,1.30
2023-04-12T05:38:59.299Z,1.30
2023-04-12T05:40:01.146Z,1.42
2023-04-12T05:41:05.831Z,1.20
2023-04-12T05:42:08.597Z,1.30
2023-04-12T05:43:13.747Z,1.73
2023-04-12T05:44:15.450Z,1.40
2023-04-12T05:45:17.113Z,1.58
2023-04-12T05:46:18.843Z,1.90
2023-04-12T05:47:24.559Z,1.50
2023-04-12T05:48:26.665Z,1.55
2023-04-12T05:49:31.568Z,1.40
2023-04-12T05:50:34.804Z,1.38
2023-04-12T05:52:51.050Z,1.50
2023-04-12T05:53:54.862Z,2.05
2023-04-12T05:54:56.828Z,1.42
2023-04-12T05:55:59.144Z,1.55
2023-04-12T05:57:01.084Z,1.50
2023-04-12T05:58:02.730Z,1.60
2023-04-12T05:59:05.442Z,1.48
2023-04-12T06:00:14.130Z,1.60
2023-04-12T06:01:19.831Z,1.50
2023-04-12T06:02:22.357Z,1.90
2023-04-12T06:04:42.017Z,1.52
2023-04-12T06:05:49.455Z,1.50
2023-04-12T06:06:52.999Z,1.65
2023-04-12T06:07:55.869Z,1.45
2023-04-12T06:09:00.545Z,1.77
2023-04-12T06:10:03.846Z,1.48
2023-04-12T06:11:05.789Z,1.60
2023-04-12T06:12:07.439Z,1.67
2023-04-12T06:13:10.989Z,1.75
2023-04-12T06:14:16.410Z,1.55
2023-04-12T06:15:20.938Z,1.88
2023-04-12T06:16:27.222Z,1.40
2023-04-12T06:17:28.939Z,1.67
2023-04-12T06:18:32.401Z,1.35
2023-04-12T06:19:34.105Z,1.77
2023-04-12T06:20:39.258Z,1.63
2023-04-12T06:21:41.146Z,1.73
2023-04-12T06:22:44.173Z,1.75
2023-04-12T06:23:48.607Z,1.70
2023-04-12T06:24:50.812Z,2.20
2023-04-12T06:25:53.418Z,1.80
2023-04-12T06:26:55.888Z,1.63
2023-04-12T06:27:58.914Z,1.70
2023-04-12T06:30:03.143Z,1.98
2023-04-12T06:31:08.222Z,1.50
2023-04-12T06:32:12.972Z,1.55
2023-04-12T06:33:15.805Z,1.67
2023-04-12T06:34:17.507Z,2.00
2023-04-12T06:35:21.424Z,1.90
2023-04-12T06:36:23.260Z,1.55
2023-04-12T06:37:24.867Z,1.70
2023-04-12T06:38:26.505Z,1.60
2023-04-12T06:39:28.152Z,1.63
2023-04-12T06:40:30.529Z,1.75
2023-04-12T06:41:32.180Z,1.70
2023-04-12T06:42:35.252Z,1.90
2023-04-12T06:43:37.044Z,1.80
2023-04-12T06:44:38.663Z,1.88
2023-04-12T06:45:40.453Z,2.00
2023-04-12T06:46:42.333Z,1.70
2023-04-12T06:47:43.971Z,1.58
2023-04-12T06:48:45.733Z,1.50
2023-04-12T06:49:47.327Z,1.50
2023-04-12T06:50:48.944Z,1.50
2023-04-12T06:51:50.652Z,1.58
2023-04-12T06:52:52.471Z,1.92
2023-04-12T06:53:54.704Z,3.20
2023-04-12T06:54:56.932Z,2.25
2023-04-12T06:55:58.806Z,1.98
2023-04-12T06:57:01.776Z,2.75
2023-04-12T06:58:03.349Z,2.38
2023-04-12T06:59:05.175Z,3.03
2023-04-12T07:00:07.499Z,2.85
2023-04-12T07:01:13.471Z,1.88
2023-04-12T07:02:15.883Z,2.45
2023-04-12T07:03:17.836Z,2.30
2023-04-12T07:04:19.778Z,2.42
2023-04-12T07:05:21.624Z,2.60
2023-04-12T07:06:25.994Z,2.45
2023-04-12T07:07:27.823Z,3.90
2023-04-12T07:08:30.274Z,5.35
2023-04-12T07:10:36.245Z,2.28
2023-04-12T07:11:37.935Z,3.55
2023-04-12T07:12:39.644Z,3.95
2023-04-12T07:13:41.312Z,3.15
2023-04-12T07:14:44.655Z,3.03
2023-04-12T07:15:49.773Z,2.78
2023-04-12T07:16:51.456Z,3.33
2023-04-12T07:17:53.169Z,4.82
2023-04-12T07:18:54.751Z,2.53
2023-04-12T07:19:56.469Z,1.65
2023-04-12T07:20:58.692Z,1.95
2023-04-12T07:22:00.798Z,1.92
2023-04-12T07:23:02.413Z,1.70
2023-04-12T07:24:04.117Z,2.20
2023-04-12T07:25:10.095Z,1.85
2023-04-12T07:26:11.960Z,1.75
2023-04-12T07:27:13.546Z,1.88
2023-04-12T07:28:15.184Z,1.92
2023-04-12T07:29:17.414Z,1.55
2023-04-12T07:30:19.602Z,1.90
2023-04-12T07:31:21.424Z,2.05
2023-04-12T07:32:23.130Z,2.05
2023-04-12T07:33:26.548Z,2.15
2023-04-12T07:34:28.511Z,2.00
2023-04-12T07:35:30.239Z,1.85
2023-04-12T07:36:31.938Z,1.63
2023-04-12T07:37:33.561Z,1.80
2023-04-12T07:38:35.509Z,1.73
2023-04-12T07:39:39.383Z,1.92
2023-04-12T07:40:41.037Z,1.80
2023-04-12T07:41:46.231Z,1.55
2023-04-12T07:42:47.820Z,1.80
2023-04-12T07:43:49.924Z,2.17
2023-04-12T07:44:51.533Z,3.05
2023-04-12T07:45:55.761Z,4.25
2023-04-12T07:46:57.655Z,1.98
2023-04-12T07:47:59.290Z,1.83
2023-04-12T07:49:00.896Z,1.77
2023-04-12T07:50:04.142Z,1.85
2023-04-12T07:51:06.216Z,1.92
2023-04-12T07:52:07.860Z,2.00
2023-04-12T07:53:28.995Z,1.92
2023-04-12T07:54:30.800Z,1.75
2023-04-12T07:55:32.423Z,1.98
2023-04-12T07:56:34.883Z,2.00
2023-04-12T07:57:36.525Z,2.05
2023-04-12T07:58:38.137Z,1.90
2023-04-12T07:59:39.773Z,2.08
2023-04-12T08:00:41.438Z,2.05
2023-04-12T08:01:43.067Z,2.00
2023-04-12T08:02:44.838Z,2.30
2023-04-12T08:03:47.211Z,2.40
2023-04-12T08:05:53.485Z,2.22
2023-04-12T08:06:55.673Z,2.67
2023-04-12T08:07:57.266Z,2.20
2023-04-12T08:08:58.871Z,1.77
2023-04-12T08:10:00.509Z,2.00
2023-04-12T08:11:03.110Z,2.10
2023-04-12T08:12:04.834Z,2.00
2023-04-12T08:13:07.179Z,1.77
2023-04-12T08:14:08.789Z,1.63
2023-04-12T08:15:10.890Z,2.00
2023-04-12T08:16:13.339Z,3.22
2023-04-12T08:18:18.536Z,1.70
2023-04-12T08:19:20.449Z,3.75
2023-04-12T08:20:22.189Z,3.22
2023-04-12T08:21:23.953Z,3.70
2023-04-12T08:22:26.252Z,2.10
2023-04-12T08:23:27.974Z,2.55
2023-04-12T08:24:29.644Z,2.00
2023-04-12T08:25:31.441Z,1.70
2023-04-12T08:26:33.146Z,1.60
2023-04-12T08:27:34.792Z,1.80
2023-04-12T08:28:37.761Z,1.67
2023-04-12T08:29:40.647Z,1.60
2023-04-12T08:30:43.243Z,1.42
2023-04-12T08:31:45.712Z,1.40
2023-04-12T08:33:49.253Z,2.00
2023-04-12T08:34:50.868Z,1.67
2023-04-12T08:35:52.977Z,1.70
2023-04-12T08:36:54.673Z,1.70
2023-04-12T08:37:56.784Z,2.00
2023-04-12T08:39:01.969Z,1.55
2023-04-12T08:40:06.911Z,1.70
2023-04-12T08:41:08.602Z,1.60
2023-04-12T08:42:11.169Z,1.40
2023-04-12T08:44:15.499Z,1.55
2023-04-12T08:46:18.992Z,1.63
2023-04-12T08:47:21.138Z,1.75
2023-04-12T08:48:23.483Z,1.27
2023-04-12T08:49:25.431Z,1.50
2023-04-12T08:50:27.396Z,1.40
2023-04-12T08:51:29.226Z,1.52
2023-04-12T08:52:33.941Z,1.30
2023-04-12T08:53:35.688Z,1.40
2023-04-12T08:54:37.754Z,1.35
2023-04-12T08:55:39.403Z,1.38
2023-04-12T08:56:42.332Z,1.40
2023-04-12T08:57:44.460Z,1.40
2023-04-12T08:58:49.068Z,1.38
2023-04-12T08:59:53.696Z,1.50
2023-04-12T09:00:55.893Z,1.48
2023-04-12T09:01:58.498Z,1.35
2023-04-12T09:03:00.632Z,1.30
2023-04-12T09:04:06.955Z,1.30
2023-04-12T09:05:09.815Z,1.48
2023-04-12T09:06:12.531Z,1.30
2023-04-12T09:07:14.202Z,1.70
2023-04-12T09:08:17.469Z,1.48
2023-04-12T09:09:19.281Z,1.40
2023-04-12T09:10:39.162Z,1.52
2023-04-12T09:11:40.830Z,1.45
2023-04-12T09:12:51.630Z,1.52
2023-04-12T09:13:56.421Z,1.55
2023-04-12T09:15:09.214Z,1.52
2023-04-12T09:16:11.090Z,1.30
2023-04-12T09:17:26.975Z,1.38
2023-04-12T09:18:28.854Z,1.50
2023-04-12T09:19:35.006Z,1.30
2023-04-12T09:20:38.002Z,1.33
2023-04-12T09:21:53.202Z,1.30
2023-04-12T09:22:55.824Z,1.23
2023-04-12T09:24:14.021Z,1.60
2023-04-12T09:25:16.627Z,1.77
2023-04-12T09:26:28.779Z,1.73
2023-04-12T09:27:30.467Z,2.03
2023-04-12T09:28:32.303Z,1.55
2023-04-12T09:29:36.694Z,1.70
2023-04-12T09:30:42.280Z,1.60
2023-04-12T09:31:55.630Z,1.40
2023-04-12T09:33:11.404Z,1.40
2023-04-12T09:34:13.046Z,1.25
2023-04-12T09:35:18.705Z,1.27
2023-04-12T09:36:20.357Z,1.40
2023-04-12T09:37:22.014Z,1.30
2023-04-12T09:38:23.662Z,1.33
2023-04-12T09:39:34.615Z,1.20
2023-04-12T09:40:37.154Z,1.35
2023-04-12T09:42:57.852Z,1.60
2023-04-12T09:44:00.419Z,1.33
2023-04-12T09:45:20.236Z,1.50
2023-04-12T09:46:22.867Z,1.48
2023-04-12T09:47:39.246Z,1.40
2023-04-12T09:48:42.016Z,1.83
2023-04-12T09:49:44.619Z,2.08
2023-04-12T09:50:46.247Z,1.42
2023-04-12T09:51:51.602Z,2.00
2023-04-12T09:52:54.714Z,1.90
2023-04-12T09:54:00.721Z,1.48
2023-04-12T09:55:03.149Z,1.90
2023-04-12T09:56:05.926Z,1.50
2023-04-12T09:57:08.816Z,1.60
2023-04-12T09:58:11.547Z,1.30
2023-04-12T09:59:13.436Z,1.60
2023-04-12T10:00:19.151Z,1.50
2023-04-12T10:01:23.209Z,1.52
2023-04-12T10:02:27.802Z,1.50
2023-04-12T10:03:30.056Z,1.40
2023-04-12T10:04:33.764Z,1.23
2023-04-12T10:05:36.702Z,1.55
2023-04-12T10:06:38.966Z,1.38
2023-04-12T10:07:43.885Z,1.55
2023-04-12T10:08:46.155Z,1.27
2023-04-12T10:09:48.234Z,1.70
2023-04-12T10:10:50.089Z,1.50
2023-04-12T10:11:51.892Z,1.40
2023-04-12T10:12:53.747Z,1.50
2023-04-12T10:13:56.991Z,1.20
2023-04-12T10:14:59.197Z,1.38
2023-04-12T10:16:00.978Z,1.30
2023-04-12T10:17:04.724Z,1.50
2023-04-12T10:18:07.171Z,1.25
2023-04-12T10:20:11.232Z,1.20
2023-04-12T10:22:15.566Z,1.30
2023-04-12T10:23:18.352Z,1.30
2023-04-12T10:24:22.809Z,1.25
2023-04-12T10:25:26.943Z,1.25
2023-04-12T10:26:28.713Z,1.15
2023-04-12T10:27:30.882Z,1.48
2023-04-12T10:28:32.519Z,1.13
2023-04-12T10:29:37.060Z,1.30
2023-04-12T10:30:38.752Z,1.27
2023-04-12T10:31:41.378Z,1.65
2023-04-12T10:32:43.189Z,1.73
2023-04-12T10:33:44.865Z,1.60
2023-04-12T10:34:54.420Z,1.40
2023-04-12T10:36:02.978Z,1.45
2023-04-12T10:37:04.692Z,1.50
2023-04-12T10:38:06.354Z,1.30
2023-04-12T10:39:12.307Z,1.40
2023-04-12T10:40:17.213Z,1.30
2023-04-12T10:41:20.986Z,1.20
2023-04-12T10:42:29.258Z,1.38
2023-04-12T10:43:33.457Z,1.23
2023-04-12T10:44:35.888Z,1.33
2023-04-12T10:46:45.885Z,1.40
2023-04-12T10:47:53.683Z,1.27
2023-04-12T10:48:55.641Z,1.40
2023-04-12T10:50:32.552Z,1.30
2023-04-12T10:51:35.787Z,1.25
2023-04-12T10:52:44.201Z,1.30
2023-04-12T10:53:46.852Z,1.20
2023-04-12T10:54:57.263Z,1.33
2023-04-12T10:55:58.977Z,1.40
2023-04-12T10:57:06.318Z,1.40
2023-04-12T10:58:47.924Z,1.50
2023-04-12T10:59:59.428Z,1.35
2023-04-12T11:01:01.268Z,1.60
2023-04-12T11:02:12.380Z,1.60
2023-04-12T11:03:18.134Z,1.33
2023-04-12T11:04:21.747Z,1.10
2023-04-12T11:06:12.566Z,1.40
2023-04-12T11:07:42.008Z,1.33
2023-04-12T11:09:04.026Z,1.30
2023-04-12T11:10:12.833Z,1.55
2023-04-12T11:11:22.672Z,1.80
2023-04-12T11:12:28.155Z,1.80
2023-04-12T11:13:35.865Z,1.45
2023-04-12T11:14:51.582Z,1.70
2023-04-12T11:16:01.779Z,1.80
2023-04-12T11:17:06.565Z,1.70
2023-04-12T11:18:08.610Z,1.65
2023-04-12T11:19:10.676Z,1.92
2023-04-12T11:20:13.508Z,1.98
2023-04-12T11:21:15.634Z,1.42
2023-04-12T11:22:18.359Z,2.83
2023-04-12T11:23:20.220Z,1.60
2023-04-12T11:24:23.229Z,2.10
2023-04-12T11:25:25.042Z,2.50
2023-04-12T11:26:30.982Z,1.90
2023-04-12T11:27:32.683Z,2.22
2023-04-12T11:28:35.515Z,2.35
2023-04-12T11:29:37.342Z,2.40
2023-04-12T11:30:57.756Z,4.55
2023-04-12T11:31:59.561Z,3.38
2023-04-12T11:33:01.577Z,4.00
2023-04-12T11:34:03.174Z,2.05
2023-04-12T11:35:05.139Z,1.70
2023-04-12T11:36:12.329Z,1.70
2023-04-12T11:37:14.544Z,1.73
2023-04-12T11:38:16.186Z,1.35
2023-04-12T11:39:18.502Z,1.60
2023-04-12T11:40:22.627Z,1.60
2023-04-12T11:41:24.265Z,1.50
2023-04-12T11:42:28.076Z,1.58
2023-04-12T11:43:30.054Z,1.90
2023-04-12T11:44:44.122Z,6.78
2023-04-12T11:45:58.919Z,7.22
2023-04-12T11:47:01.368Z,4.93
2023-04-12T11:48:03.184Z,2.38
2023-04-12T11:49:04.916Z,3.03
2023-04-12T11:50:07.399Z,10.82
2023-04-12T11:52:31.277Z,3.90
2023-04-12T11:53:33.575Z,3.35
2023-04-12T11:54:35.412Z,2.60
2023-04-12T11:55:37.066Z,1.65
2023-04-12T11:56:39.407Z,1.80
2023-04-12T11:57:41.065Z,1.77
2023-04-12T11:58:42.788Z,1.65
2023-04-12T11:59:46.110Z,2.63
2023-04-12T12:00:47.720Z,2.60
2023-04-12T12:01:52.384Z,2.10
2023-04-12T12:03:06.697Z,2.80
2023-04-12T12:04:09.959Z,2.03
2023-04-12T12:05:12.094Z,1.85
2023-04-12T12:06:15.705Z,2.10
2023-04-12T12:07:17.950Z,5.05
2023-04-12T12:08:19.980Z,3.42
2023-04-12T12:09:22.079Z,5.45
2023-04-12T12:10:41.493Z,6.38
2023-04-12T12:11:45.708Z,5.90
2023-04-12T12:12:48.053Z,4.18
2023-04-12T12:13:56.721Z,3.45
2023-04-12T12:14:59.603Z,1.90
2023-04-12T12:16:01.230Z,1.80
2023-04-12T12:17:10.176Z,3.95
2023-04-12T12:18:12.001Z,2.55
2023-04-12T12:19:13.634Z,1.90
2023-04-12T12:20:21.735Z,2.10
2023-04-12T12:21:23.759Z,4.97
2023-04-12T12:22:25.695Z,3.28
2023-04-12T12:23:30.975Z,2.00
2023-04-12T12:24:33.394Z,2.03
2023-04-12T12:25:35.832Z,3.55
2023-04-12T12:26:37.485Z,2.25
2023-04-12T12:27:40.661Z,2.78
2023-04-12T12:28:42.371Z,3.92
2023-04-12T12:29:44.263Z,4.60
2023-04-12T12:30:46.625Z,2.92
2023-04-12T12:32:54.348Z,1.90
2023-04-12T12:33:57.584Z,1.92
2023-04-12T12:34:59.224Z,1.92
2023-04-12T12:36:01.171Z,2.13
2023-04-12T12:37:02.830Z,1.65
2023-04-12T12:38:08.560Z,1.70
2023-04-12T12:39:12.475Z,1.88
2023-04-12T12:40:14.444Z,1.80
2023-04-12T12:41:21.074Z,1.48
2023-04-12T12:42:23.277Z,1.60
2023-04-12T12:43:25.715Z,1.67
2023-04-12T12:45:29.883Z,1.70
2023-04-12T12:46:44.710Z,1.50
2023-04-12T12:48:04.086Z,1.90
2023-04-12T12:49:06.149Z,1.40
2023-04-12T12:50:08.195Z,1.50
2023-04-12T12:51:10.140Z,1.50
2023-04-12T12:52:11.843Z,1.50
2023-04-12T12:53:13.579Z,1.48
2023-04-12T12:54:31.665Z,1.67
2023-04-12T12:55:38.187Z,1.50
2023-04-12T12:56:39.872Z,1.27
2023-04-12T12:57:55.183Z,1.40
2023-04-12T12:59:03.764Z,1.30
2023-04-12T13:00:06.382Z,1.40
2023-04-12T13:01:08.596Z,1.20
2023-04-12T13:02:10.579Z,1.30
2023-04-12T13:03:12.950Z,1.40
2023-04-12T13:05:16.580Z,1.30
2023-04-12T13:06:18.291Z,1.48
2023-04-12T13:07:19.892Z,1.27
2023-04-12T13:08:21.510Z,1.33
2023-04-12T13:09:23.194Z,2.10
2023-04-12T13:10:26.577Z,1.17
2023-04-12T13:11:28.196Z,1.50
2023-04-12T13:12:29.852Z,1.42
2023-04-12T13:13:31.490Z,1.33
2023-04-12T13:14:33.149Z,1.30
2023-04-12T13:15:34.736Z,1.40
2023-04-12T13:16:36.454Z,1.60
2023-04-12T13:17:38.104Z,1.60
2023-04-12T13:18:39.931Z,1.80
2023-04-12T13:19:41.799Z,1.25
2023-04-12T13:20:43.577Z,1.35
2023-04-12T13:21:45.313Z,1.20
2023-04-12T13:22:46.906Z,1.30
2023-04-12T13:23:48.754Z,1.30
2023-04-12T13:24:50.581Z,1.20
2023-04-12T13:25:53.124Z,1.10
2023-04-12T13:26:54.733Z,1.10
2023-04-12T13:27:56.433Z,1.20
2023-04-12T13:28:58.327Z,0.90
2023-04-12T13:30:00.416Z,1.10
2023-04-12T13:31:02.203Z,1.00
2023-04-12T13:32:03.983Z,1.00
2023-04-12T13:33:05.849Z,1.23
2023-04-12T13:34:07.572Z,0.90
2023-04-12T13:35:09.311Z,0.90
2023-04-12T13:36:10.957Z,1.00
2023-04-12T13:37:12.776Z,0.90
2023-04-12T13:38:14.424Z,0.93
2023-04-12T13:39:16.086Z,0.85
2023-04-12T13:40:17.785Z,0.80
2023-04-12T13:41:19.418Z,0.80
2023-04-12T13:42:22.490Z,0.82
2023-04-12T13:43:24.095Z,0.90
2023-04-12T13:44:27.589Z,0.80
2023-04-12T13:45:29.915Z,0.70
2023-04-12T13:46:32.836Z,0.90
2023-04-12T13:47:35.394Z,0.70
2023-04-12T13:48:37.383Z,0.80
2023-04-12T13:49:39.059Z,0.93
2023-04-12T13:50:40.846Z,0.90
2023-04-12T13:51:42.441Z,0.70
2023-04-12T13:52:44.013Z,0.90
2023-04-12T13:53:45.799Z,0.77
2023-04-12T13:54:47.433Z,0.90
2023-04-12T13:55:50.228Z,0.80
2023-04-12T13:56:51.954Z,0.73
2023-04-12T13:57:53.562Z,0.90
2023-04-12T13:58:56.848Z,0.90
2023-04-12T13:59:58.768Z,0.77
2023-04-12T14:01:01.060Z,0.73
2023-04-12T14:02:02.828Z,0.82
2023-04-12T14:03:04.598Z,1.05
2023-04-12T14:04:07.728Z,0.70
2023-04-12T14:05:09.685Z,0.90
2023-04-12T14:06:11.504Z,1.05
2023-04-12T14:07:13.127Z,0.90
2023-04-12T14:08:14.733Z,0.90
2023-04-12T14:09:26.589Z,0.80
2023-04-12T14:10:28.166Z,1.00
2023-04-12T14:11:29.809Z,0.70
2023-04-12T14:12:31.516Z,0.95
2023-04-12T14:13:33.104Z,0.85
2023-04-12T14:14:34.765Z,1.00
2023-04-12T14:15:36.723Z,1.05
2023-04-12T14:16:38.364Z,0.80
2023-04-12T14:17:40.131Z,0.80
2023-04-12T14:18:41.977Z,0.60
2023-04-12T14:19:43.592Z,0.80
2023-04-12T14:20:49.147Z,0.60
2023-04-12T14:21:50.948Z,0.88
2023-04-12T14:22:52.520Z,0.47
2023-04-12T14:23:54.081Z,0.80
2023-04-12T14:24:55.834Z,1.00
2023-04-12T14:25:57.707Z,1.17
2023-04-12T14:27:01.000Z,1.20
2023-04-12T14:28:02.617Z,0.95
2023-04-12T14:29:04.744Z,0.80
2023-04-12T14:30:07.357Z,0.80
2023-04-12T14:31:09.301Z,0.55
2023-04-12T14:32:10.920Z,0.80
2023-04-12T14:33:12.754Z,0.73
2023-04-12T14:34:14.547Z,0.90
2023-04-12T14:35:16.831Z,0.88
2023-04-12T14:36:18.490Z,0.73
2023-04-12T14:37:20.255Z,1.02
2023-04-12T14:38:22.789Z,0.90
2023-04-12T14:39:24.476Z,1.00
2023-04-12T14:40:26.110Z,0.80
2023-04-12T14:41:27.692Z,1.17
2023-04-12T14:42:29.266Z,0.82
2023-04-12T14:43:30.919Z,1.00